createdAt,value
2023-08-16T00:04:37.682Z,3.40
2023-08-16T00:09:41.112Z,2.70
2023-08-16T00:14:44.475Z,3.73
2023-08-16T00:19:49.253Z,2.73
2023-08-16T00:24:52.839Z,3.70
2023-08-16T00:29:56.165Z,4.07
2023-08-16T00:35:00.873Z,4.97
2023-08-16T00:40:04.650Z,4.80
2023-08-16T00:45:08.867Z,4.53
2023-08-16T00:50:13.747Z,3.50
2023-08-16T00:55:17.669Z,3.40
2023-08-16T01:00:21.514Z,3.37
2023-08-16T01:05:26.323Z,3.90
2023-08-16T01:10:34.968Z,3.50
2023-08-16T01:15:41.283Z,3.37
2023-08-16T01:20:48.556Z,3.80
2023-08-16T01:25:58.813Z,3.93
2023-08-16T01:31:06.405Z,3.70
2023-08-16T01:36:09.679Z,3.47
2023-08-16T01:41:16.589Z,3.07
2023-08-16T01:46:22.338Z,3.10
2023-08-16T01:51:26.005Z,3.23
2023-08-16T01:56:29.557Z,3.50
2023-08-16T02:01:34.276Z,3.20
2023-08-16T02:06:37.608Z,3.43
2023-08-16T02:11:40.995Z,3.90
2023-08-16T02:16:45.761Z,3.10
2023-08-16T02:21:49.358Z,3.57
2023-08-16T02:26:54.547Z,3.43
2023-08-16T02:31:59.228Z,2.87
2023-08-16T02:37:02.533Z,3.10
2023-08-16T02:42:06.089Z,3.13
2023-08-16T02:47:10.735Z,3.37
2023-08-16T02:52:14.094Z,3.20
2023-08-16T02:57:19.628Z,3.00
2023-08-16T03:02:26.421Z,2.93
2023-08-16T03:07:29.760Z,2.63
2023-08-16T03:12:33.130Z,3.07
2023-08-16T03:17:38.248Z,3.70
2023-08-16T03:22:42.632Z,3.30
2023-08-16T03:27:46.106Z,3.10
2023-08-16T03:32:54.272Z,3.80
2023-08-16T03:37:59.278Z,3.23
2023-08-16T03:43:03.185Z,2.83
2023-08-16T03:48:08.317Z,2.57
2023-08-16T03:53:12.537Z,2.70
2023-08-16T03:58:16.090Z,2.00
2023-08-16T04:03:21.010Z,2.30
2023-08-16T04:08:24.472Z,3.70
2023-08-16T04:13:27.785Z,4.07
2023-08-16T04:18:32.736Z,4.10
2023-08-16T04:23:36.103Z,4.03
2023-08-16T04:28:39.396Z,5.10
2023-08-16T04:33:44.120Z,4.20
2023-08-16T04:38:47.535Z,4.17
2023-08-16T04:43:50.816Z,3.80
2023-08-16T04:48:56.020Z,5.00
2023-08-16T04:53:59.543Z,4.17
2023-08-16T04:59:02.961Z,3.50
2023-08-16T05:04:10.112Z,3.47
2023-08-16T05:09:13.872Z,3.43
2023-08-16T05:14:17.759Z,4.27
2023-08-16T05:19:22.572Z,4.10
2023-08-16T05:24:26.823Z,4.83
2023-08-16T05:29:30.214Z,4.40
2023-08-16T05:34:35.154Z,3.17
2023-08-16T05:39:40.266Z,3.10
2023-08-16T05:44:45.759Z,4.13
2023-08-16T05:49:50.640Z,5.20
2023-08-16T05:54:53.937Z,5.90
2023-08-16T05:59:57.154Z,4.30
2023-08-16T06:05:02.027Z,4.40
2023-08-16T06:10:06.212Z,4.50
2023-08-16T06:15:12.654Z,5.03
2023-08-16T06:20:17.960Z,4.83
2023-08-16T06:25:21.588Z,5.70
2023-08-16T06:30:25.137Z,25.33
2023-08-16T06:35:30.874Z,24.77
2023-08-16T06:40:34.749Z,12.60
2023-08-16T06:45:38.078Z,7.10
2023-08-16T06:50:42.858Z,7.17
2023-08-16T06:55:47.153Z,7.03
2023-08-16T07:00:51.192Z,18.90
2023-08-16T07:05:55.844Z,11.30
2023-08-16T07:10:59.216Z,7.30
2023-08-16T07:16:02.640Z,6.70
2023-08-16T07:21:07.294Z,6.90
2023-08-16T07:26:10.647Z,6.40
2023-08-16T07:31:13.906Z,6.60
2023-08-16T07:36:18.628Z,7.30
2023-08-16T07:41:21.930Z,5.70
2023-08-16T07:46:25.303Z,6.97
2023-08-16T07:51:30.738Z,5.90
2023-08-16T07:56:34.093Z,6.10
2023-08-16T08:01:37.371Z,6.50
2023-08-16T08:06:42.666Z,6.73
2023-08-16T08:11:46.008Z,6.00
2023-08-16T08:16:49.336Z,6.63
2023-08-16T08:21:54.118Z,5.90
2023-08-16T08:26:58.704Z,6.73
2023-08-16T08:32:02.436Z,5.77
2023-08-16T08:37:08.175Z,6.07
2023-08-16T08:42:11.724Z,6.67
2023-08-16T08:47:17.334Z,5.30
2023-08-16T08:52:23.007Z,5.30
2023-08-16T08:57:27.307Z,4.80
2023-08-16T09:02:34.906Z,5.90
2023-08-16T09:07:41.411Z,5.80
2023-08-16T09:12:45.136Z,6.20
2023-08-16T09:17:51.588Z,5.50
2023-08-16T09:22:56.511Z,7.80
2023-08-16T09:28:01.808Z,6.03
2023-08-16T09:33:06.046Z,5.40
2023-08-16T09:43:17.877Z,6.17
2023-08-16T09:48:22.901Z,6.97
2023-08-16T09:58:34.169Z,7.17
2023-08-16T10:03:37.699Z,7.07
2023-08-16T10:08:42.381Z,6.70
2023-08-16T10:13:46.335Z,8.00
2023-08-16T10:18:50.113Z,7.30
2023-08-16T10:23:56.652Z,8.20
2023-08-16T10:29:02.542Z,8.37
2023-08-16T10:34:08.974Z,8.80
2023-08-16T10:39:22.485Z,10.30
2023-08-16T10:44:26.613Z,12.67
2023-08-16T10:49:39.394Z,12.80
2023-08-16T10:54:44.209Z,12.20
2023-08-16T10:59:48.507Z,12.40
2023-08-16T11:04:52.299Z,12.00
2023-08-16T11:10:00.617Z,11.53
2023-08-16T11:15:05.097Z,11.00
2023-08-16T11:20:11.244Z,12.70
2023-08-16T11:25:15.993Z,12.13
2023-08-16T11:30:20.121Z,11.53
2023-08-16T11:35:25.031Z,12.30
2023-08-16T11:40:29.721Z,11.40
2023-08-16T11:45:33.085Z,9.63
2023-08-16T11:50:36.834Z,12.17
2023-08-16T11:55:43.134Z,12.93
2023-08-16T12:00:46.554Z,10.97
2023-08-16T12:05:50.928Z,10.30
2023-08-16T12:10:56.269Z,10.90
2023-08-16T12:15:59.716Z,10.87
2023-08-16T12:21:02.897Z,10.70
2023-08-16T12:26:08.618Z,10.37
2023-08-16T12:31:13.428Z,9.67
2023-08-16T12:36:16.617Z,10.53
2023-08-16T12:41:21.259Z,10.47
2023-08-16T12:46:24.522Z,10.20
2023-08-16T12:51:28.051Z,10.57
2023-08-16T12:56:33.239Z,10.30
2023-08-16T13:01:42.261Z,9.43
2023-08-16T13:11:57.144Z,9.57
2023-08-16T13:22:17.047Z,10.80
2023-08-16T13:27:40.761Z,10.13
2023-08-16T13:32:46.523Z,9.40
2023-08-16T13:37:58.332Z,10.20
2023-08-16T13:48:10.267Z,8.77
2023-08-16T13:53:13.777Z,7.93
2023-08-16T13:58:19.736Z,7.20
2023-08-16T14:03:23.475Z,7.70
2023-08-16T14:08:27.411Z,8.10
2023-08-16T14:13:32.521Z,7.97
2023-08-16T14:18:38.038Z,7.70
2023-08-16T14:23:41.210Z,7.03
2023-08-16T14:28:46.028Z,8.10
2023-08-16T14:33:49.291Z,7.10
2023-08-16T14:38:59.863Z,6.67
2023-08-16T14:44:06.255Z,6.67
2023-08-16T14:49:09.761Z,7.13
2023-08-16T14:54:13.313Z,6.00
2023-08-16T14:59:18.326Z,5.73
2023-08-16T15:04:22.352Z,5.77
2023-08-16T15:09:26.673Z,6.13
2023-08-16T15:14:31.516Z,5.90
2023-08-16T15:19:41.569Z,5.90
2023-08-16T15:24:44.854Z,6.53
2023-08-16T15:29:49.574Z,5.60
2023-08-16T15:34:53.515Z,5.30
2023-08-16T15:39:56.661Z,6.60
2023-08-16T15:45:01.403Z,6.00
2023-08-16T15:50:04.948Z,5.60
2023-08-16T15:55:09.436Z,5.50
2023-08-16T16:00:15.965Z,5.43
2023-08-16T16:05:20.102Z,5.77
2023-08-16T16:10:24.164Z,5.30
2023-08-16T16:15:29.440Z,5.53
2023-08-16T16:20:33.055Z,5.50
2023-08-16T16:25:36.487Z,5.17
2023-08-16T16:30:41.198Z,5.03
2023-08-16T16:35:44.697Z,6.13
2023-08-16T16:40:48.428Z,5.80
2023-08-16T16:45:53.128Z,6.00
2023-08-16T16:50:56.925Z,6.27
2023-08-16T16:56:00.241Z,6.50
2023-08-16T17:01:05.607Z,6.27
2023-08-16T17:06:08.970Z,5.87
2023-08-16T17:11:12.405Z,6.77
2023-08-16T17:16:17.215Z,6.60
2023-08-16T17:21:20.501Z,6.13
2023-08-16T17:26:23.961Z,6.20
2023-08-16T17:31:28.724Z,6.37
2023-08-16T17:36:32.521Z,6.47
2023-08-16T17:41:35.793Z,6.97
2023-08-16T17:46:40.578Z,6.77
2023-08-16T17:51:44.163Z,6.13
2023-08-16T17:56:47.320Z,6.13
2023-08-16T18:01:54.563Z,6.83
2023-08-16T18:06:59.594Z,6.40
2023-08-16T18:12:02.891Z,5.97
2023-08-16T18:17:07.636Z,6.20
2023-08-16T18:22:10.919Z,6.10
2023-08-16T18:27:14.154Z,6.63
2023-08-16T18:32:19.099Z,6.20
2023-08-16T18:37:22.519Z,6.70
2023-08-16T18:42:25.877Z,6.40
2023-08-16T18:47:30.566Z,6.60
2023-08-16T18:52:33.753Z,5.90
2023-08-16T18:57:37.222Z,6.67
2023-08-16T19:02:41.937Z,7.10
2023-08-16T19:07:45.239Z,6.70
2023-08-16T19:12:48.528Z,6.47
2023-08-16T19:17:54.364Z,6.40
2023-08-16T19:22:58.171Z,7.37
2023-08-16T19:28:01.545Z,7.00
2023-08-16T19:33:06.947Z,6.90
2023-08-16T19:38:10.382Z,6.90
2023-08-16T19:43:13.603Z,7.67
2023-08-16T19:48:18.384Z,7.37
2023-08-16T19:53:22.078Z,7.50
2023-08-16T19:58:25.910Z,7.60
2023-08-16T20:03:30.725Z,8.20
2023-08-16T20:08:34.096Z,7.50
2023-08-16T20:13:37.353Z,7.73
2023-08-16T20:18:42.237Z,8.00
2023-08-16T20:23:45.656Z,8.30
2023-08-16T20:28:48.921Z,8.20
2023-08-16T20:33:53.715Z,7.80
2023-08-16T20:38:57.272Z,8.03
2023-08-16T20:44:00.550Z,8.07
2023-08-16T20:49:10.286Z,7.93
2023-08-16T20:54:14.623Z,7.87
2023-08-16T20:59:18.280Z,7.93
2023-08-16T21:04:23.161Z,8.30
2023-08-16T21:09:26.840Z,7.90
2023-08-16T21:14:30.559Z,8.30
2023-08-16T21:19:37.438Z,7.40
2023-08-16T21:24:40.993Z,8.10
2023-08-16T21:29:44.354Z,7.40
2023-08-16T21:34:49.079Z,7.13
2023-08-16T21:39:52.646Z,7.47
2023-08-16T21:44:56.054Z,7.80
2023-08-16T21:50:00.843Z,7.83
2023-08-16T21:55:04.324Z,8.87
2023-08-16T22:00:09.563Z,8.20
2023-08-16T22:05:14.219Z,7.73
2023-08-16T22:10:18.516Z,8.10
2023-08-16T22:15:24.705Z,8.00
2023-08-16T22:20:29.401Z,8.70
2023-08-16T22:25:32.757Z,8.77
2023-08-16T22:30:36.093Z,9.23
2023-08-16T22:35:40.811Z,9.23
2023-08-16T22:40:44.198Z,8.70
2023-08-16T22:45:47.594Z,7.50
2023-08-16T22:50:52.351Z,8.83
2023-08-16T22:55:55.732Z,9.57
2023-08-16T23:00:59.146Z,6.73
2023-08-16T23:06:04.135Z,4.00
2023-08-16T23:11:08.081Z,3.27
2023-08-16T23:16:11.396Z,2.10
2023-08-16T23:21:16.177Z,2.70
2023-08-16T23:26:19.446Z,1.90
2023-08-16T23:31:22.741Z,1.57
2023-08-16T23:36:27.527Z,1.53
2023-08-16T23:42:14.449Z,1.70
2023-08-16T23:54:25.777Z,2.00
